createdAt,value
2022-08-29T00:01:53.119Z,14.78
2022-08-29T00:04:23.442Z,15.00
2022-08-29T00:06:53.295Z,14.95
2022-08-29T00:09:23.562Z,14.84
2022-08-29T00:11:53.314Z,15.15
2022-08-29T00:14:23.855Z,15.07
2022-08-29T00:16:54.033Z,15.21
2022-08-29T00:19:25.194Z,15.25
2022-08-29T00:21:55.190Z,15.32
2022-08-29T00:24:25.678Z,15.50
2022-08-29T00:26:55.468Z,15.54
2022-08-29T00:29:25.507Z,15.54
2022-08-29T00:31:55.243Z,15.51
2022-08-29T00:34:25.315Z,15.35
2022-08-29T00:36:56.167Z,15.39
2022-08-29T00:39:25.882Z,15.79
2022-08-29T00:41:59.017Z,16.00
2022-08-29T00:44:30.434Z,16.08
2022-08-29T00:47:04.741Z,16.23
2022-08-29T00:49:40.501Z,15.91
2022-08-29T00:52:22.795Z,16.12
2022-08-29T00:54:56.210Z,16.05
2022-08-29T00:57:29.960Z,15.98
2022-08-29T01:00:00.773Z,15.89
2022-08-29T01:02:31.292Z,15.82
2022-08-29T01:05:01.496Z,15.83
2022-08-29T01:07:31.968Z,15.65
2022-08-29T01:10:13.393Z,15.77
2022-08-29T01:12:44.305Z,15.71
2022-08-29T01:15:14.746Z,15.58
2022-08-29T01:17:48.371Z,15.45
2022-08-29T01:20:43.924Z,15.57
2022-08-29T01:23:33.561Z,15.33
2022-08-29T01:26:05.285Z,15.20
2022-08-29T01:28:45.990Z,15.19
2022-08-29T01:31:46.910Z,14.93
2022-08-29T01:34:16.749Z,15.24
2022-08-29T01:36:56.824Z,15.16
2022-08-29T01:39:31.070Z,15.04
2022-08-29T01:42:05.206Z,15.13
2022-08-29T01:44:35.673Z,15.19
2022-08-29T01:47:07.618Z,15.16
2022-08-29T01:49:40.779Z,15.06
2022-08-29T01:52:11.978Z,15.09
2022-08-29T01:54:46.924Z,15.28
2022-08-29T01:57:19.230Z,15.34
2022-08-29T01:59:49.812Z,15.35
2022-08-29T02:02:27.597Z,15.35
2022-08-29T02:04:59.787Z,15.15
2022-08-29T02:07:30.695Z,15.02
2022-08-29T02:10:01.116Z,15.09
2022-08-29T02:12:32.658Z,15.13
2022-08-29T02:15:03.540Z,15.16
2022-08-29T02:17:34.708Z,15.20
2022-08-29T02:20:11.894Z,15.33
2022-08-29T02:22:43.339Z,15.38
2022-08-29T02:25:33.214Z,15.46
2022-08-29T02:28:05.491Z,15.43
2022-08-29T02:30:35.962Z,15.28
2022-08-29T02:33:06.610Z,15.41
2022-08-29T02:35:42.603Z,15.33
2022-08-29T02:38:13.706Z,15.08
2022-08-29T02:40:45.710Z,14.97
2022-08-29T02:43:17.800Z,15.03
2022-08-29T02:45:49.303Z,15.00
2022-08-29T02:48:19.656Z,15.01
2022-08-29T02:50:52.715Z,14.96
2022-08-29T02:53:28.225Z,15.01
2022-08-29T02:55:58.772Z,15.00
2022-08-29T02:58:29.687Z,14.95
2022-08-29T03:00:59.840Z,15.12
2022-08-29T03:03:30.455Z,15.23
2022-08-29T03:06:00.838Z,14.89
2022-08-29T03:08:31.338Z,14.80
2022-08-29T03:11:01.968Z,14.80
2022-08-29T03:13:32.678Z,14.80
2022-08-29T03:16:06.181Z,14.46
2022-08-29T03:18:36.808Z,14.35
2022-08-29T03:21:06.839Z,14.86
2022-08-29T03:23:37.448Z,14.86
2022-08-29T03:26:07.734Z,15.04
2022-08-29T03:28:38.137Z,14.86
2022-08-29T03:31:08.772Z,14.94
2022-08-29T03:33:42.192Z,15.20
2022-08-29T03:36:14.349Z,15.21
2022-08-29T03:38:47.457Z,14.91
2022-08-29T03:41:28.082Z,15.11
2022-08-29T03:44:00.329Z,15.25
2022-08-29T03:46:30.444Z,15.12
2022-08-29T03:49:00.431Z,15.26
2022-08-29T03:51:32.740Z,14.92
2022-08-29T03:54:03.228Z,14.84
2022-08-29T03:56:33.517Z,14.91
2022-08-29T03:59:04.064Z,14.93
2022-08-29T04:01:34.110Z,14.70
2022-08-29T04:04:04.296Z,14.42
2022-08-29T04:06:35.152Z,14.26
2022-08-29T04:09:05.716Z,14.21
2022-08-29T04:11:35.524Z,14.07
2022-08-29T04:14:06.025Z,13.92
2022-08-29T04:16:36.085Z,14.04
2022-08-29T04:19:06.494Z,13.99
2022-08-29T04:21:38.986Z,13.79
2022-08-29T04:24:09.447Z,13.81
2022-08-29T04:26:39.906Z,13.85
2022-08-29T04:29:12.900Z,13.75
2022-08-29T04:31:44.897Z,13.61
2022-08-29T04:34:15.511Z,13.61
2022-08-29T04:36:49.450Z,13.76
2022-08-29T04:39:19.972Z,13.80
2022-08-29T04:41:49.954Z,13.66
2022-08-29T04:44:20.495Z,13.47
2022-08-29T04:46:50.561Z,13.62
2022-08-29T04:49:22.755Z,13.47
2022-08-29T04:51:55.014Z,13.77
2022-08-29T04:54:25.471Z,13.86
2022-08-29T04:56:57.313Z,13.89
2022-08-29T04:59:28.100Z,13.98
2022-08-29T05:01:58.929Z,14.00
2022-08-29T05:04:29.451Z,14.10
2022-08-29T05:06:59.476Z,14.08
2022-08-29T05:09:29.893Z,14.48
2022-08-29T05:11:59.850Z,14.57
2022-08-29T05:14:30.312Z,14.51
2022-08-29T05:17:00.324Z,14.64
2022-08-29T05:19:34.585Z,14.61
2022-08-29T05:22:05.622Z,14.51
2022-08-29T05:24:38.477Z,14.53
2022-08-29T05:27:17.111Z,14.54
2022-08-29T05:29:49.681Z,14.46
2022-08-29T05:32:20.681Z,14.52
2022-08-29T05:34:51.595Z,14.59
2022-08-29T05:37:23.502Z,14.59
2022-08-29T05:39:54.188Z,14.47
2022-08-29T05:42:24.970Z,14.49
2022-08-29T05:44:55.932Z,14.58
2022-08-29T05:47:26.543Z,14.73
2022-08-29T05:49:57.185Z,14.68
2022-08-29T05:52:28.185Z,14.59
2022-08-29T05:54:58.674Z,14.64
2022-08-29T05:57:28.710Z,14.65
2022-08-29T05:59:59.109Z,14.60
2022-08-29T06:02:29.284Z,14.67
2022-08-29T06:05:00.295Z,14.57
2022-08-29T06:07:31.908Z,14.58
2022-08-29T06:10:07.798Z,14.55
2022-08-29T06:12:38.822Z,14.49
2022-08-29T06:15:09.608Z,14.47
2022-08-29T06:17:39.916Z,14.25
2022-08-29T06:20:11.229Z,14.27
2022-08-29T06:22:41.635Z,14.33
2022-08-29T06:25:37.447Z,14.25
2022-08-29T06:28:02.845Z,14.21
2022-08-29T06:30:34.747Z,14.19
2022-08-29T06:33:05.204Z,14.20
2022-08-29T06:35:35.594Z,14.28
2022-08-29T06:38:05.423Z,13.99
2022-08-29T06:40:35.923Z,14.09
2022-08-29T06:43:06.046Z,14.13
2022-08-29T06:45:43.326Z,14.28
2022-08-29T06:48:13.948Z,14.33
2022-08-29T06:50:45.865Z,14.22
2022-08-29T06:53:27.324Z,14.19
2022-08-29T06:56:11.463Z,14.14
2022-08-29T06:58:42.537Z,14.18
2022-08-29T07:01:19.535Z,14.30
2022-08-29T07:03:49.606Z,14.18
2022-08-29T07:06:19.799Z,14.32
2022-08-29T07:08:55.910Z,14.56
2022-08-29T07:11:28.054Z,14.48
2022-08-29T07:14:01.803Z,14.62
2022-08-29T07:16:33.123Z,14.42
2022-08-29T07:19:09.002Z,14.46
2022-08-29T07:21:39.820Z,14.48
2022-08-29T07:24:10.428Z,14.42
2022-08-29T07:26:44.966Z,14.67
2022-08-29T07:29:19.030Z,14.59
2022-08-29T07:31:49.817Z,14.83
2022-08-29T07:34:23.678Z,14.46
2022-08-29T07:36:54.086Z,14.52
2022-08-29T07:39:25.195Z,14.33
2022-08-29T07:41:55.338Z,14.41
2022-08-29T07:44:30.280Z,14.23
2022-08-29T07:47:04.850Z,14.17
2022-08-29T07:49:40.919Z,14.33
2022-08-29T07:52:11.740Z,14.25
2022-08-29T07:54:42.222Z,14.18
2022-08-29T07:57:12.414Z,14.38
2022-08-29T07:59:42.871Z,14.30
2022-08-29T08:02:12.993Z,14.16
2022-08-29T08:04:42.971Z,14.20
2022-08-29T08:07:14.116Z,14.29
2022-08-29T08:09:45.418Z,14.26
2022-08-29T08:12:15.552Z,14.36
2022-08-29T08:14:45.930Z,14.39
2022-08-29T08:17:16.502Z,14.43
2022-08-29T08:19:49.884Z,14.44
2022-08-29T08:22:20.662Z,14.47
2022-08-29T08:24:51.091Z,14.46
2022-08-29T08:27:21.543Z,14.64
2022-08-29T08:29:52.345Z,14.60
2022-08-29T08:32:27.603Z,14.47
2022-08-29T08:35:03.135Z,14.39
2022-08-29T08:37:33.156Z,14.51
2022-08-29T08:40:03.307Z,14.30
2022-08-29T08:42:43.676Z,14.14
2022-08-29T08:45:27.939Z,14.08
2022-08-29T08:48:07.250Z,14.09
2022-08-29T08:50:45.668Z,14.01
2022-08-29T08:53:45.520Z,13.89
2022-08-29T08:56:30.218Z,13.89
2022-08-29T08:59:06.444Z,13.84
2022-08-29T09:01:44.515Z,13.76
2022-08-29T09:04:28.555Z,13.37
2022-08-29T09:07:06.941Z,13.54
2022-08-29T09:10:21.265Z,13.57
2022-08-29T09:13:25.002Z,13.50
2022-08-29T09:15:59.646Z,13.52
2022-08-29T09:18:52.651Z,13.48
2022-08-29T09:21:42.103Z,13.85
2022-08-29T09:24:22.527Z,13.79
2022-08-29T09:26:52.638Z,13.78
2022-08-29T09:29:31.602Z,13.76
2022-08-29T09:32:22.471Z,13.87
2022-08-29T09:35:09.495Z,13.77
2022-08-29T09:37:40.749Z,13.50
2022-08-29T09:40:19.388Z,13.44
2022-08-29T09:43:03.127Z,13.63
2022-08-29T09:45:33.199Z,13.71
2022-08-29T09:48:15.706Z,13.73
2022-08-29T09:50:46.525Z,13.62
2022-08-29T09:53:25.557Z,13.53
2022-08-29T09:55:56.018Z,13.20
2022-08-29T09:58:26.535Z,13.16
2022-08-29T10:01:26.231Z,12.71
2022-08-29T10:04:04.745Z,13.15
2022-08-29T10:06:46.153Z,13.04
2022-08-29T10:09:29.947Z,13.12
2022-08-29T10:12:13.673Z,12.93
2022-08-29T10:14:56.054Z,12.92
2022-08-29T10:17:55.829Z,12.88
2022-08-29T10:20:50.838Z,12.80
2022-08-29T10:24:02.063Z,13.15
2022-08-29T10:27:01.664Z,13.15
2022-08-29T10:29:40.866Z,13.09
2022-08-29T10:32:58.657Z,12.69
2022-08-29T10:35:38.667Z,12.81
2022-08-29T10:38:21.002Z,12.90
2022-08-29T10:40:59.955Z,12.96
2022-08-29T10:43:39.489Z,12.77
2022-08-29T10:46:09.718Z,12.89
2022-08-29T10:48:47.547Z,13.36
2022-08-29T10:51:23.615Z,13.65
2022-08-29T10:54:06.248Z,13.96
2022-08-29T10:56:44.322Z,14.27
2022-08-29T10:59:49.307Z,13.88
2022-08-29T11:02:29.615Z,14.09
2022-08-29T11:05:04.418Z,13.93
2022-08-29T11:07:41.294Z,13.83
2022-08-29T11:10:25.272Z,13.83
2022-08-29T11:13:09.350Z,13.98
2022-08-29T11:15:48.837Z,14.16
2022-08-29T11:18:33.379Z,14.41
2022-08-29T11:21:20.228Z,13.92
2022-08-29T11:23:50.447Z,14.16
2022-08-29T11:26:24.369Z,13.89
2022-08-29T11:29:08.930Z,14.07
2022-08-29T11:32:03.229Z,14.18
2022-08-29T11:34:57.633Z,14.25
2022-08-29T11:38:05.239Z,13.98
2022-08-29T11:43:49.192Z,13.85
2022-08-29T11:46:38.699Z,14.45
2022-08-29T11:49:23.904Z,14.99
2022-08-29T11:52:01.261Z,15.18
2022-08-29T11:54:50.596Z,14.99
2022-08-29T11:57:20.771Z,14.83
2022-08-29T11:59:52.000Z,14.98
2022-08-29T12:02:34.380Z,15.24
2022-08-29T12:05:21.882Z,15.44
2022-08-29T12:08:26.170Z,15.60
2022-08-29T12:10:59.200Z,16.00
2022-08-29T12:13:48.181Z,15.69
2022-08-29T12:16:52.379Z,15.37
2022-08-29T12:19:53.776Z,15.46
2022-08-29T12:22:47.405Z,15.57
2022-08-29T12:25:39.411Z,16.06
2022-08-29T12:28:19.230Z,15.59
2022-08-29T12:31:05.407Z,16.26
2022-08-29T12:34:03.865Z,16.02
2022-08-29T12:36:57.243Z,15.93
2022-08-29T12:40:01.600Z,16.62
2022-08-29T12:42:53.340Z,17.21
2022-08-29T12:45:32.964Z,17.73
2022-08-29T12:48:13.205Z,18.27
2022-08-29T12:50:49.176Z,18.61
2022-08-29T12:53:27.337Z,18.35
2022-08-29T12:56:18.544Z,17.98
2022-08-29T12:58:57.142Z,17.86
2022-08-29T13:01:32.502Z,18.05
2022-08-29T13:04:20.720Z,17.67
2022-08-29T13:07:05.363Z,17.57
2022-08-29T13:09:35.025Z,17.73
2022-08-29T13:12:33.619Z,18.18
2022-08-29T13:15:09.478Z,18.59
2022-08-29T13:17:43.992Z,18.96
2022-08-29T13:20:47.131Z,19.39
2022-08-29T13:23:36.511Z,19.50
2022-08-29T13:26:13.002Z,19.06
2022-08-29T13:28:47.742Z,19.17
2022-08-29T13:31:18.189Z,18.56
2022-08-29T13:34:00.635Z,18.76
2022-08-29T13:36:39.715Z,19.12
2022-08-29T13:39:19.695Z,19.45
2022-08-29T13:42:17.994Z,19.90
2022-08-29T13:44:54.463Z,19.85
2022-08-29T13:47:28.542Z,20.80
2022-08-29T13:50:09.727Z,21.24
2022-08-29T13:52:40.102Z,20.94
2022-08-29T13:55:12.093Z,21.33
2022-08-29T13:57:44.989Z,21.57
2022-08-29T14:00:17.119Z,20.85
2022-08-29T14:02:47.737Z,20.63
2022-08-29T14:05:18.713Z,20.73
2022-08-29T14:07:49.290Z,21.13
2022-08-29T14:10:21.035Z,20.73
2022-08-29T14:12:51.320Z,20.63
2022-08-29T14:15:22.324Z,21.23
2022-08-29T14:17:52.506Z,20.90
2022-08-29T14:20:23.790Z,20.41
2022-08-29T14:22:54.255Z,20.60
2022-08-29T14:25:25.539Z,20.35
2022-08-29T14:27:56.571Z,20.53
2022-08-29T14:30:27.541Z,20.76
2022-08-29T14:32:57.955Z,21.12
2022-08-29T14:35:31.914Z,22.17
2022-08-29T14:38:04.722Z,22.98
2022-08-29T14:40:41.988Z,22.85
2022-08-29T14:43:13.334Z,21.99
2022-08-29T14:45:44.071Z,20.77
2022-08-29T14:48:14.493Z,20.38
2022-08-29T14:50:45.527Z,20.92
2022-08-29T14:53:16.069Z,21.97
2022-08-29T14:55:46.834Z,23.15
2022-08-29T14:58:17.483Z,24.90
2022-08-29T15:00:48.319Z,25.66
2022-08-29T15:03:20.619Z,26.16
2022-08-29T15:05:51.401Z,26.18
2022-08-29T15:08:21.860Z,24.81
2022-08-29T15:10:52.790Z,23.45
2022-08-29T15:13:25.504Z,22.87
2022-08-29T15:15:56.481Z,21.75
2022-08-29T15:19:05.477Z,21.77
2022-08-29T15:21:20.608Z,23.31
2022-08-29T15:23:50.804Z,23.91
2022-08-29T15:26:21.601Z,23.24
2022-08-29T15:28:52.127Z,23.65
2022-08-29T15:31:23.605Z,23.81
2022-08-29T15:33:53.918Z,24.23
2022-08-29T15:36:24.688Z,24.12
2022-08-29T15:38:55.056Z,23.17
2022-08-29T15:41:25.811Z,23.07
2022-08-29T15:43:55.989Z,22.69
2022-08-29T15:46:27.043Z,23.43
2022-08-29T15:48:57.872Z,24.26
2022-08-29T15:51:28.570Z,25.47
2022-08-29T15:53:58.778Z,26.20
2022-08-29T15:56:36.265Z,26.00
2022-08-29T15:59:09.056Z,26.09
2022-08-29T16:01:47.693Z,27.32
2022-08-29T16:04:23.386Z,28.33
2022-08-29T16:06:54.887Z,27.30
2022-08-29T16:09:25.201Z,26.52
2022-08-29T16:11:56.167Z,25.51
2022-08-29T16:17:17.666Z,26.11
2022-08-29T16:19:47.967Z,25.53
2022-08-29T16:22:18.694Z,24.51
2022-08-29T16:24:49.338Z,24.69
2022-08-29T16:27:24.442Z,25.54
2022-08-29T16:29:56.001Z,26.59
2022-08-29T16:32:26.738Z,25.00
2022-08-29T16:34:59.755Z,25.67
2022-08-29T16:37:30.441Z,25.55
2022-08-29T16:40:01.596Z,24.40
2022-08-29T16:42:32.463Z,24.58
2022-08-29T16:45:02.871Z,25.65
2022-08-29T16:47:33.976Z,26.04
2022-08-29T16:50:05.735Z,26.10
2022-08-29T16:52:36.566Z,25.43
2022-08-29T16:55:07.687Z,24.08
2022-08-29T16:57:38.597Z,23.75
2022-08-29T17:00:13.014Z,23.71
2022-08-29T17:02:43.772Z,23.81
2022-08-29T17:05:14.064Z,23.34
2022-08-29T17:07:44.500Z,23.50
2022-08-29T17:10:14.215Z,23.26
2022-08-29T17:12:44.703Z,23.07
2022-08-29T17:15:14.072Z,22.87
2022-08-29T17:17:44.139Z,21.99
2022-08-29T17:20:16.206Z,22.59
2022-08-29T17:22:46.425Z,22.48
2022-08-29T17:25:17.049Z,22.49
2022-08-29T17:28:01.010Z,22.50
2022-08-29T17:30:38.598Z,22.29
2022-08-29T17:33:11.922Z,22.23
2022-08-29T17:35:42.812Z,23.31
2022-08-29T17:38:15.669Z,24.91
2022-08-29T17:40:47.378Z,25.18
2022-08-29T17:43:20.383Z,25.09
2022-08-29T17:45:51.151Z,24.05
2022-08-29T17:48:22.104Z,24.16
2022-08-29T17:50:53.058Z,23.07
2022-08-29T17:53:23.560Z,22.72
2022-08-29T17:55:55.134Z,22.32
2022-08-29T17:58:28.419Z,21.28
2022-08-29T18:00:59.160Z,21.28
2022-08-29T18:03:29.529Z,21.68
2022-08-29T18:06:00.223Z,21.26
2022-08-29T18:08:31.228Z,21.18
2022-08-29T18:11:02.467Z,20.89
2022-08-29T18:13:32.876Z,21.56
2022-08-29T18:16:03.764Z,20.34
2022-08-29T18:18:36.193Z,20.10
2022-08-29T18:21:07.099Z,20.35
2022-08-29T18:23:38.031Z,20.35
2022-08-29T18:26:08.798Z,19.73
2022-08-29T18:28:39.106Z,19.72
2022-08-29T18:31:12.540Z,19.81
2022-08-29T18:34:04.392Z,20.18
2022-08-29T18:36:37.458Z,20.69
2022-08-29T18:39:09.046Z,20.28
2022-08-29T18:41:39.793Z,20.63
2022-08-29T18:44:13.842Z,20.27
2022-08-29T18:46:46.324Z,19.70
2022-08-29T18:49:20.882Z,19.75
2022-08-29T18:51:51.502Z,19.96
2022-08-29T18:54:24.113Z,19.68
2022-08-29T18:56:57.601Z,19.90
2022-08-29T18:59:30.802Z,19.45
2022-08-29T19:02:01.662Z,18.92
2022-08-29T19:04:33.151Z,18.58
2022-08-29T19:07:03.838Z,18.20
2022-08-29T19:09:35.586Z,18.19
2022-08-29T19:12:06.922Z,18.03
2022-08-29T19:14:46.155Z,18.05
2022-08-29T19:17:16.501Z,18.01
2022-08-29T19:20:10.206Z,18.13
2022-08-29T19:22:41.255Z,18.65
2022-08-29T19:25:12.046Z,19.06
2022-08-29T19:27:43.925Z,18.95
2022-08-29T19:30:16.748Z,18.57
2022-08-29T19:32:47.435Z,18.31
2022-08-29T19:35:17.639Z,18.37
2022-08-29T19:37:48.641Z,18.50
2022-08-29T19:40:21.001Z,18.75
2022-08-29T19:42:52.010Z,19.04
2022-08-29T19:45:22.148Z,18.53
2022-08-29T19:47:53.534Z,18.64
2022-08-29T19:50:25.935Z,18.59
2022-08-29T19:52:57.383Z,18.33
2022-08-29T19:55:28.025Z,18.16
2022-08-29T19:57:58.547Z,18.60
2022-08-29T20:00:28.714Z,18.58
2022-08-29T20:03:04.536Z,18.66
2022-08-29T20:05:34.692Z,18.47
2022-08-29T20:08:06.112Z,18.35
2022-08-29T20:10:36.423Z,18.74
2022-08-29T20:13:07.793Z,18.75
2022-08-29T20:15:37.820Z,18.98
2022-08-29T20:18:11.234Z,19.02
2022-08-29T20:20:43.295Z,19.10
2022-08-29T20:23:14.535Z,18.95
2022-08-29T20:25:45.172Z,19.04
2022-08-29T20:28:16.247Z,19.36
2022-08-29T20:30:46.563Z,18.71
2022-08-29T20:33:21.030Z,19.39
2022-08-29T20:36:10.151Z,19.48
2022-08-29T20:38:40.599Z,19.58
2022-08-29T20:41:10.607Z,19.50
2022-08-29T20:43:42.006Z,19.11
2022-08-29T20:46:13.900Z,18.99
2022-08-29T20:48:44.578Z,18.34
2022-08-29T20:51:15.242Z,18.06
2022-08-29T20:53:45.685Z,17.81
2022-08-29T20:56:15.819Z,17.31
2022-08-29T20:58:47.143Z,17.17
2022-08-29T21:01:19.535Z,16.94
2022-08-29T21:04:08.061Z,16.63
2022-08-29T21:06:40.795Z,16.51
2022-08-29T21:09:11.267Z,16.34
2022-08-29T21:11:41.315Z,16.31
2022-08-29T21:14:11.400Z,16.59
2022-08-29T21:16:41.151Z,16.57
2022-08-29T21:19:12.185Z,16.50
2022-08-29T21:21:42.305Z,16.52
2022-08-29T21:24:13.032Z,16.47
2022-08-29T21:26:43.156Z,16.50
2022-08-29T21:29:13.687Z,16.49
2022-08-29T21:31:44.099Z,16.48
2022-08-29T21:34:15.133Z,16.28
2022-08-29T21:36:45.603Z,16.10
2022-08-29T21:39:23.325Z,16.16
2022-08-29T21:42:01.460Z,16.09
2022-08-29T21:44:33.482Z,15.92
2022-08-29T21:47:06.005Z,15.88
2022-08-29T21:49:36.795Z,15.86
2022-08-29T21:52:06.808Z,15.73
2022-08-29T21:54:37.225Z,15.74
2022-08-29T21:57:07.960Z,15.63
2022-08-29T21:59:38.324Z,15.57
2022-08-29T22:02:08.582Z,15.63
2022-08-29T22:04:39.070Z,15.60
2022-08-29T22:07:10.366Z,15.55
2022-08-29T22:09:40.859Z,15.43
2022-08-29T22:12:10.896Z,15.33
2022-08-29T22:15:13.255Z,15.27
2022-08-29T22:17:44.334Z,15.27
2022-08-29T22:20:15.008Z,15.26
2022-08-29T22:22:45.146Z,14.79
2022-08-29T22:25:15.686Z,14.85
2022-08-29T22:27:45.902Z,14.96
2022-08-29T22:30:17.083Z,15.05
2022-08-29T22:32:52.813Z,15.00
2022-08-29T22:35:24.544Z,14.93
2022-08-29T22:37:54.623Z,15.01
2022-08-29T22:40:26.521Z,15.06
2022-08-29T22:42:57.681Z,14.93
2022-08-29T22:45:28.118Z,14.50
2022-08-29T22:47:58.142Z,14.42
2022-08-29T22:50:28.660Z,14.60
2022-08-29T22:53:02.878Z,14.68
2022-08-29T22:55:33.598Z,14.85
2022-08-29T22:58:07.311Z,14.67
2022-08-29T23:00:37.794Z,14.60
2022-08-29T23:03:08.031Z,14.70
2022-08-29T23:05:37.991Z,14.13
2022-08-29T23:08:07.770Z,14.35
2022-08-29T23:10:37.751Z,14.49
2022-08-29T23:13:08.101Z,14.46
2022-08-29T23:15:38.424Z,14.44
2022-08-29T23:18:08.842Z,14.41
2022-08-29T23:20:38.850Z,14.56
2022-08-29T23:23:09.310Z,14.53
2022-08-29T23:25:39.462Z,14.53
2022-08-29T23:28:09.945Z,14.38
2022-08-29T23:30:40.434Z,14.45
2022-08-29T23:33:10.931Z,14.54
2022-08-29T23:35:41.066Z,14.52
2022-08-29T23:38:12.084Z,14.48
2022-08-29T23:40:45.035Z,14.42
2022-08-29T23:43:15.593Z,14.44
2022-08-29T23:45:45.727Z,14.52
2022-08-29T23:48:16.940Z,14.35
2022-08-29T23:50:52.738Z,14.29
2022-08-29T23:53:24.799Z,14.45
2022-08-29T23:55:55.140Z,14.37
2022-08-29T23:58:25.623Z,14.34
